Time;durP1;ratioP1;P1;durP2;ratioP2;P2;SDS_P1;SDS_P2;PMS_P1;PMS_P2;Temp;Humidity;BMP_temperature;BMP_pressure;BME280_temperature;BME280_humidity;BME280_pressure;Samples;Min_cycle;Max_cycle;Signal;HPM_P1;HPM_P2
2023/06/04 00:02:24;;;;;;;10.32;4.60;;;;;;;;;;4920497;29;20047;-83
2023/06/04 00:04:49;;;;;;;8.63;3.72;;;;;;;;;;4933087;29;20016;-83
2023/06/04 00:07:15;;;;;;;5.55;3.38;;;;;;;;;;4929577;29;20031;-83
2023/06/04 00:09:40;;;;;;;12.70;3.65;;;;;;;;;;4928781;29;20032;-82
2023/06/04 00:12:06;;;;;;;7.28;3.35;;;;;;;;;;4934404;29;20163;-81
2023/06/04 00:14:31;;;;;;;9.32;4.00;;;;;;;;;;4921839;29;20027;-81
2023/06/04 00:16:57;;;;;;;6.70;3.40;;;;;;;;;;4925310;29;20032;-81
2023/06/04 00:19:22;;;;;;;4.45;3.15;;;;;;;;;;4909306;29;20024;-81
2023/06/04 00:21:48;;;;;;;4.80;3.20;;;;;;;;;;4932006;29;20024;-81
2023/06/04 00:24:13;;;;;;;7.70;3.15;;;;;;;;;;4934436;29;20024;-81
2023/06/04 00:26:39;;;;;;;8.52;3.47;;;;;;;;;;4904739;29;20032;-81
2023/06/04 00:29:04;;;;;;;6.72;3.30;;;;;;;;;;4922628;29;20035;-79
2023/06/04 00:31:30;;;;;;;5.30;3.47;;;;;;;;;;4923133;29;20052;-80
2023/06/04 00:33:55;;;;;;;5.75;3.33;;;;;;;;;;4934458;29;20959;-80
2023/06/04 00:36:20;;;;;;;5.78;3.22;;;;;;;;;;4923225;29;20040;-79
2023/06/04 00:38:46;;;;;;;4.18;2.72;;;;;;;;;;4917019;29;20039;-79
2023/06/04 00:41:11;;;;;;;5.65;3.25;;;;;;;;;;4928814;29;20028;-79
2023/06/04 00:43:37;;;;;;;4.40;3.22;;;;;;;;;;4931200;29;20032;-76
2023/06/04 00:46:03;;;;;;;6.03;3.13;;;;;;;;;;4940252;29;20442;-79
2023/06/04 00:48:30;;;;;;;5.90;3.08;;;;;;;;;;4927507;29;20083;-78
2023/06/04 00:50:56;;;;;;;4.30;3.25;;;;;;;;;;4902548;29;20031;-78
2023/06/04 00:53:23;;;;;;;3.58;2.97;;;;;;;;;;4920785;29;20032;-79
2023/06/04 00:55:49;;;;;;;4.50;2.95;;;;;;;;;;4921038;29;20551;-82
2023/06/04 00:58:15;;;;;;;4.50;2.97;;;;;;;;;;4926204;29;20036;-80
2023/06/04 01:00:42;;;;;;;3.80;2.70;;;;;;;;;;4925662;29;20032;-80
2023/06/04 01:03:13;;;;;;;4.93;2.88;;;;;;;;;;4934142;29;20036;-82
2023/06/04 01:05:54;;;;;;;4.22;3.10;;;;;;;;;;4937760;29;20083;-81
2023/06/04 01:08:20;;;;;;;3.60;2.60;;;;;;;;;;4928519;29;20043;-81
2023/06/04 01:10:55;;;;;;;5.40;2.45;;;;;;;;;;4929490;29;20036;-81
2023/06/04 01:13:20;;;;;;;4.70;2.80;;;;;;;;;;4910940;29;20024;-82
2023/06/04 01:15:46;;;;;;;4.50;2.60;;;;;;;;;;4931905;29;20038;-82
2023/06/04 01:18:27;;;;;;;4.80;2.95;;;;;;;;;;4927455;29;20111;-82
2023/06/04 01:20:58;;;;;;;4.47;2.90;;;;;;;;;;4926773;29;20027;-81
2023/06/04 01:23:46;;;;;;;4.20;2.72;;;;;;;;;;4911681;29;20032;-82
2023/06/04 01:26:13;;;;;;;5.45;3.17;;;;;;;;;;4922006;29;20063;-82
2023/06/04 01:28:39;;;;;;;6.70;3.00;;;;;;;;;;4927692;29;20024;-82
2023/06/04 01:31:08;;;;;;;5.20;2.80;;;;;;;;;;4918719;29;20036;-82
2023/06/04 01:33:33;;;;;;;5.35;2.50;;;;;;;;;;4932371;29;20055;-81
2023/06/04 01:35:59;;;;;;;6.20;2.90;;;;;;;;;;4930115;29;20043;-82
2023/06/04 01:38:25;;;;;;;7.10;2.90;;;;;;;;;;4932583;29;20475;-82
2023/06/04 01:40:52;;;;;;;4.88;2.95;;;;;;;;;;4930390;29;20034;-82
2023/06/04 01:43:18;;;;;;;3.65;2.53;;;;;;;;;;4925692;29;20467;-80
2023/06/04 01:45:44;;;;;;;5.80;2.78;;;;;;;;;;4930639;29;20083;-81
2023/06/04 01:48:09;;;;;;;4.75;2.70;;;;;;;;;;4937396;29;20059;-80
2023/06/04 01:50:34;;;;;;;3.50;2.63;;;;;;;;;;4933020;29;20035;-81
2023/06/04 01:53:00;;;;;;;3.95;2.95;;;;;;;;;;4928146;29;20024;-80
2023/06/04 01:55:26;;;;;;;4.40;2.35;;;;;;;;;;4935281;29;20046;-80
2023/06/04 01:57:51;;;;;;;5.75;2.60;;;;;;;;;;4926608;29;20032;-81
2023/06/04 02:00:17;;;;;;;4.50;2.72;;;;;;;;;;4922648;29;20032;-82
2023/06/04 02:02:47;;;;;;;4.63;2.72;;;;;;;;;;4921460;29;20028;-83
2023/06/04 02:05:13;;;;;;;3.05;2.30;;;;;;;;;;4930125;29;20030;-83
2023/06/04 02:07:41;;;;;;;5.40;2.85;;;;;;;;;;4938677;29;20023;-82
2023/06/04 02:10:08;;;;;;;6.35;3.08;;;;;;;;;;4926077;29;20116;-83
2023/06/04 02:12:36;;;;;;;5.57;2.70;;;;;;;;;;4917569;29;20028;-81
2023/06/04 02:15:02;;;;;;;4.72;2.30;;;;;;;;;;4938953;29;20024;-81
2023/06/04 02:17:27;;;;;;;3.72;2.47;;;;;;;;;;4903833;29;21286;-82
2023/06/04 02:19:54;;;;;;;5.53;2.45;;;;;;;;;;4925142;29;20043;-82
2023/06/04 02:22:20;;;;;;;6.07;2.72;;;;;;;;;;4920382;29;20035;-83
2023/06/04 02:24:47;;;;;;;3.55;2.28;;;;;;;;;;4918770;29;20454;-81
2023/06/04 02:27:14;;;;;;;3.60;2.50;;;;;;;;;;4932370;29;20016;-81
2023/06/04 02:29:40;;;;;;;7.30;2.50;;;;;;;;;;4926751;29;20058;-81
2023/06/04 02:32:06;;;;;;;3.55;2.55;;;;;;;;;;4928996;29;20020;-80
2023/06/04 02:34:31;;;;;;;3.67;2.40;;;;;;;;;;4948067;29;20024;-79
2023/06/04 02:36:58;;;;;;;3.45;2.58;;;;;;;;;;4943784;29;20036;-83
2023/06/04 02:39:23;;;;;;;3.28;2.20;;;;;;;;;;4917282;29;20043;-82
2023/06/04 02:41:49;;;;;;;4.57;2.20;;;;;;;;;;4921935;29;20111;-82
2023/06/04 02:44:14;;;;;;;5.30;2.17;;;;;;;;;;4930356;29;20035;-80
2023/06/04 02:46:39;;;;;;;4.40;2.17;;;;;;;;;;4907890;29;20036;-81
2023/06/04 02:49:05;;;;;;;5.78;2.35;;;;;;;;;;4926265;29;20032;-82
2023/06/04 02:51:31;;;;;;;3.80;2.10;;;;;;;;;;4926430;29;20047;-82
2023/06/04 02:53:56;;;;;;;2.65;1.77;;;;;;;;;;4924937;29;20119;-82
2023/06/04 02:56:22;;;;;;;3.13;2.05;;;;;;;;;;4927674;29;20111;-81
2023/06/04 02:58:55;;;;;;;2.58;2.00;;;;;;;;;;4941191;29;20019;-81
2023/06/04 03:01:26;;;;;;;3.53;2.33;;;;;;;;;;4902767;29;20028;-80
2023/06/04 03:03:52;;;;;;;3.35;2.35;;;;;;;;;;4929390;29;20052;-80
2023/06/04 03:06:20;;;;;;;3.17;2.05;;;;;;;;;;4919504;29;20044;-81
2023/06/04 03:08:47;;;;;;;4.50;2.65;;;;;;;;;;4926306;29;20160;-81
2023/06/04 03:11:13;;;;;;;4.30;1.98;;;;;;;;;;4932689;29;20036;-80
2023/06/04 03:13:38;;;;;;;3.95;2.50;;;;;;;;;;4914492;29;20387;-80
2023/06/04 03:16:09;;;;;;;4.95;2.88;;;;;;;;;;4926826;29;20039;-80
2023/06/04 03:18:38;;;;;;;7.85;2.75;;;;;;;;;;4925950;29;20024;-80
2023/06/04 03:21:04;;;;;;;3.20;2.10;;;;;;;;;;4922152;29;20036;-82
2023/06/04 03:23:30;;;;;;;4.70;2.47;;;;;;;;;;4918879;29;20044;-81
2023/06/04 03:25:55;;;;;;;6.32;2.63;;;;;;;;;;4924712;29;20087;-81
2023/06/04 03:28:21;;;;;;;4.53;2.28;;;;;;;;;;4944466;29;20023;-81
2023/06/04 03:30:46;;;;;;;5.53;2.17;;;;;;;;;;4929082;29;20031;-81
2023/06/04 03:33:11;;;;;;;4.35;2.70;;;;;;;;;;4924151;29;20101;-81
2023/06/04 03:35:37;;;;;;;5.22;2.70;;;;;;;;;;4927448;29;20031;-81
2023/06/04 03:38:02;;;;;;;6.55;2.50;;;;;;;;;;4926223;29;20036;-81
2023/06/04 03:40:27;;;;;;;4.32;2.28;;;;;;;;;;4910584;29;20027;-81
2023/06/04 03:42:53;;;;;;;2.28;2.08;;;;;;;;;;4929940;29;20031;-81
2023/06/04 03:45:18;;;;;;;4.57;2.42;;;;;;;;;;4932364;29;20063;-81
2023/06/04 03:47:44;;;;;;;4.28;2.30;;;;;;;;;;4947378;29;20083;-81
2023/06/04 03:50:10;;;;;;;5.88;2.13;;;;;;;;;;4925706;29;20075;-80
2023/06/04 03:52:36;;;;;;;3.60;2.55;;;;;;;;;;4921681;29;20612;-80
2023/06/04 03:55:01;;;;;;;3.33;2.10;;;;;;;;;;4926580;29;20032;-81
2023/06/04 03:57:27;;;;;;;5.65;2.22;;;;;;;;;;4943370;29;20024;-81
2023/06/04 03:59:52;;;;;;;2.85;2.00;;;;;;;;;;4936384;29;20032;-81
2023/06/04 04:02:18;;;;;;;3.47;2.17;;;;;;;;;;4940486;29;20026;-81
2023/06/04 04:04:44;;;;;;;2.95;2.15;;;;;;;;;;4927567;29;20024;-81
2023/06/04 04:07:10;;;;;;;2.97;2.13;;;;;;;;;;4932148;29;20031;-80
2023/06/04 04:09:36;;;;;;;4.55;1.90;;;;;;;;;;4937673;29;20019;-81
2023/06/04 04:12:01;;;;;;;3.83;2.40;;;;;;;;;;4925146;29;20036;-80
2023/06/04 04:14:26;;;;;;;4.55;2.35;;;;;;;;;;4912514;29;20459;-80
2023/06/04 04:16:51;;;;;;;2.97;2.13;;;;;;;;;;4932791;29;20037;-81
2023/06/04 04:19:17;;;;;;;2.78;2.08;;;;;;;;;;4945239;23;20036;-80
2023/06/04 04:21:42;;;;;;;5.05;1.90;;;;;;;;;;4950920;29;20043;-81
2023/06/04 04:24:08;;;;;;;6.43;2.15;;;;;;;;;;4921612;29;20099;-82
2023/06/04 04:26:34;;;;;;;3.10;1.95;;;;;;;;;;4948512;29;20027;-82
2023/06/04 04:28:59;;;;;;;6.07;2.15;;;;;;;;;;4938507;29;20099;-81
2023/06/04 04:31:30;;;;;;;4.03;2.15;;;;;;;;;;4954094;28;20481;-82
2023/06/04 04:33:56;;;;;;;2.92;2.20;;;;;;;;;;4963410;28;20031;-81
2023/06/04 04:36:21;;;;;;;4.88;2.13;;;;;;;;;;4956306;29;20095;-80
2023/06/04 04:38:53;;;;;;;5.65;2.13;;;;;;;;;;4967686;28;20030;-81
2023/06/04 04:41:20;;;;;;;3.67;2.20;;;;;;;;;;4971628;28;20038;-81
2023/06/04 04:43:46;;;;;;;7.25;1.85;;;;;;;;;;4962063;28;20034;-81
2023/06/04 04:46:11;;;;;;;5.03;2.30;;;;;;;;;;4969761;28;20035;-81
2023/06/04 04:48:38;;;;;;;3.75;1.50;;;;;;;;;;4959229;28;20046;-81
2023/06/04 04:51:03;;;;;;;2.53;1.75;;;;;;;;;;4965409;28;20035;-80
2023/06/04 04:53:29;;;;;;;2.45;1.77;;;;;;;;;;4963374;28;20023;-80
2023/06/04 04:55:54;;;;;;;2.60;1.90;;;;;;;;;;4963038;28;20039;-81
2023/06/04 04:58:20;;;;;;;5.28;1.80;;;;;;;;;;4943932;29;20090;-81
2023/06/04 05:00:47;;;;;;;5.28;2.83;;;;;;;;;;4942700;29;20027;-81
2023/06/04 05:03:12;;;;;;;4.03;2.20;;;;;;;;;;4964318;28;20032;-80
2023/06/04 05:05:38;;;;;;;2.30;1.77;;;;;;;;;;4950611;29;20434;-80
2023/06/04 05:08:03;;;;;;;2.50;1.75;;;;;;;;;;4966426;28;20035;-81
2023/06/04 05:10:29;;;;;;;3.60;2.08;;;;;;;;;;4961015;28;20027;-79
2023/06/04 05:12:59;;;;;;;3.17;1.95;;;;;;;;;;4946896;28;20457;-78
2023/06/04 05:15:26;;;;;;;4.75;1.92;;;;;;;;;;4970138;28;20354;-79
2023/06/04 05:17:56;;;;;;;3.42;1.80;;;;;;;;;;4966157;28;20051;-79
2023/06/04 05:20:22;;;;;;;6.03;2.13;;;;;;;;;;4962984;28;20031;-81
2023/06/04 05:22:47;;;;;;;2.17;1.80;;;;;;;;;;4964741;28;20097;-80
2023/06/04 05:25:14;;;;;;;1.90;1.80;;;;;;;;;;4968424;28;20031;-81
2023/06/04 05:27:39;;;;;;;2.60;1.95;;;;;;;;;;4964915;28;20033;-81
2023/06/04 05:30:06;;;;;;;1.70;1.60;;;;;;;;;;4964006;28;20051;-81
2023/06/04 05:32:32;;;;;;;15.55;1.85;;;;;;;;;;4967009;28;20039;-81
2023/06/04 05:34:58;;;;;;;3.63;1.73;;;;;;;;;;4959837;28;20648;-81
2023/06/04 05:37:26;;;;;;;2.35;1.60;;;;;;;;;;4961618;28;20027;-81
2023/06/04 05:39:58;;;;;;;2.60;1.95;;;;;;;;;;4960397;28;20135;-80
2023/06/04 05:42:23;;;;;;;6.63;1.93;;;;;;;;;;4974839;28;20027;-81
2023/06/04 05:44:49;;;;;;;3.60;1.95;;;;;;;;;;4963184;28;20276;-80
2023/06/04 05:47:18;;;;;;;5.97;1.50;;;;;;;;;;4968024;28;20102;-80
2023/06/04 05:49:44;;;;;;;4.93;1.80;;;;;;;;;;4964185;28;20027;-81
2023/06/04 05:52:09;;;;;;;3.03;1.33;;;;;;;;;;4952253;29;20114;-80
2023/06/04 05:54:36;;;;;;;3.55;1.70;;;;;;;;;;4946070;29;20026;-81
2023/06/04 05:57:02;;;;;;;3.90;1.60;;;;;;;;;;4951673;29;20165;-81
2023/06/04 05:59:27;;;;;;;2.47;1.67;;;;;;;;;;4971796;28;20100;-80
2023/06/04 06:01:53;;;;;;;2.90;1.88;;;;;;;;;;4950411;28;20038;-80
2023/06/04 06:04:18;;;;;;;1.63;1.52;;;;;;;;;;4969882;28;20024;-80
2023/06/04 06:06:47;;;;;;;3.88;1.63;;;;;;;;;;4964784;28;20458;-81
2023/06/04 06:09:12;;;;;;;3.65;1.63;;;;;;;;;;4964722;29;20075;-81
2023/06/04 06:11:38;;;;;;;1.92;1.48;;;;;;;;;;4951789;28;20030;-81
2023/06/04 06:14:03;;;;;;;4.45;1.77;;;;;;;;;;4948631;29;20031;-81
2023/06/04 06:16:28;;;;;;;2.50;1.90;;;;;;;;;;4965348;28;20031;-81
2023/06/04 06:18:54;;;;;;;2.20;1.58;;;;;;;;;;4973207;28;20031;-80
2023/06/04 06:21:20;;;;;;;2.90;1.65;;;;;;;;;;4965141;28;20053;-80
2023/06/04 06:23:45;;;;;;;2.50;1.58;;;;;;;;;;4952658;28;20014;-81
2023/06/04 06:26:10;;;;;;;1.73;1.63;;;;;;;;;;4951825;29;20028;-81
2023/06/04 06:28:36;;;;;;;2.78;1.50;;;;;;;;;;4966937;28;20029;-81
2023/06/04 06:31:02;;;;;;;3.20;1.75;;;;;;;;;;4965440;28;20042;-81
2023/06/04 06:33:27;;;;;;;2.78;1.70;;;;;;;;;;4963846;28;20031;-81
2023/06/04 06:35:53;;;;;;;2.95;1.63;;;;;;;;;;4961338;28;20039;-81
2023/06/04 06:38:18;;;;;;;1.95;1.40;;;;;;;;;;4955771;28;20042;-80
2023/06/04 06:40:43;;;;;;;3.00;1.80;;;;;;;;;;4976914;28;20054;-80
2023/06/04 06:43:10;;;;;;;2.92;1.80;;;;;;;;;;4956950;29;20039;-80
2023/06/04 06:45:36;;;;;;;2.58;1.42;;;;;;;;;;4971609;28;20051;-79
2023/06/04 06:48:01;;;;;;;3.30;1.50;;;;;;;;;;4967537;28;20090;-79
2023/06/04 06:50:26;;;;;;;2.08;1.33;;;;;;;;;;4969254;28;20406;-79
2023/06/04 06:52:52;;;;;;;3.15;1.70;;;;;;;;;;4967177;28;20038;-80
2023/06/04 06:55:17;;;;;;;2.20;1.40;;;;;;;;;;4970336;28;20038;-79
2023/06/04 06:57:43;;;;;;;4.25;1.65;;;;;;;;;;4966660;28;20090;-80
2023/06/04 07:00:09;;;;;;;2.28;1.90;;;;;;;;;;4943785;28;20058;-80
2023/06/04 07:02:34;;;;;;;5.57;2.05;;;;;;;;;;4946558;28;20026;-80
2023/06/04 07:04:59;;;;;;;2.95;1.60;;;;;;;;;;4968376;28;20197;-81
2023/06/04 07:07:28;;;;;;;2.83;1.92;;;;;;;;;;4968592;28;20111;-81
2023/06/04 07:09:53;;;;;;;2.03;1.52;;;;;;;;;;4967852;28;20024;-79
2023/06/04 07:12:19;;;;;;;2.78;1.73;;;;;;;;;;4961366;28;20031;-81
2023/06/04 07:14:45;;;;;;;2.83;1.80;;;;;;;;;;4964967;28;20011;-80
2023/06/04 07:17:10;;;;;;;3.17;1.85;;;;;;;;;;4960827;28;20379;-80
2023/06/04 07:19:35;;;;;;;6.00;1.83;;;;;;;;;;4962287;29;20023;-79
2023/06/04 07:22:01;;;;;;;3.35;1.73;;;;;;;;;;4964074;28;20440;-81
2023/06/04 07:24:26;;;;;;;2.03;1.60;;;;;;;;;;4963763;28;20038;-79
2023/06/04 07:26:52;;;;;;;2.40;1.67;;;;;;;;;;4943351;29;20121;-80
2023/06/04 07:29:17;;;;;;;3.05;1.80;;;;;;;;;;4940477;29;20031;-80
2023/06/04 07:31:42;;;;;;;3.20;1.92;;;;;;;;;;4964735;28;20026;-78
2023/06/04 07:34:08;;;;;;;7.68;2.10;;;;;;;;;;4966525;28;20031;-79
2023/06/04 07:36:33;;;;;;;4.05;1.60;;;;;;;;;;4969541;28;20114;-80
2023/06/04 07:38:59;;;;;;;4.90;1.75;;;;;;;;;;4968596;28;20605;-78
2023/06/04 07:41:26;;;;;;;4.13;1.77;;;;;;;;;;4969974;28;20026;-80
2023/06/04 07:43:51;;;;;;;4.45;1.55;;;;;;;;;;4975519;28;20030;-79
2023/06/04 07:46:18;;;;;;;5.25;1.90;;;;;;;;;;4956356;28;20055;-80
2023/06/04 07:48:45;;;;;;;1.95;1.65;;;;;;;;;;4966996;29;20038;-79
2023/06/04 07:51:11;;;;;;;3.80;1.88;;;;;;;;;;4964367;28;20034;-79
2023/06/04 07:53:37;;;;;;;2.65;1.60;;;;;;;;;;4956306;28;20019;-80
2023/06/04 07:56:03;;;;;;;2.63;1.73;;;;;;;;;;4963326;28;20031;-79
2023/06/04 07:58:28;;;;;;;3.00;1.75;;;;;;;;;;4957051;28;20052;-81
2023/06/04 08:00:54;;;;;;;2.95;1.98;;;;;;;;;;4953873;29;20032;-81
2023/06/04 08:03:20;;;;;;;3.08;1.60;;;;;;;;;;4972139;28;20043;-80
2023/06/04 08:05:45;;;;;;;2.90;1.90;;;;;;;;;;4970311;28;20027;-80
2023/06/04 08:08:11;;;;;;;8.45;1.83;;;;;;;;;;4957983;28;20035;-80
2023/06/04 08:10:36;;;;;;;2.75;1.67;;;;;;;;;;4959512;28;20038;-79
2023/06/04 08:13:02;;;;;;;1.80;1.60;;;;;;;;;;4940745;29;20035;-79
2023/06/04 08:15:27;;;;;;;3.05;1.80;;;;;;;;;;4951995;28;20058;-81
2023/06/04 08:17:53;;;;;;;1.98;1.65;;;;;;;;;;4956983;28;20031;-78
2023/06/04 08:20:18;;;;;;;4.55;1.90;;;;;;;;;;4932068;28;20031;-79
2023/06/04 08:22:43;;;;;;;3.25;1.83;;;;;;;;;;4961307;29;20405;-79
2023/06/04 08:25:09;;;;;;;2.38;1.70;;;;;;;;;;4962390;28;20143;-79
2023/06/04 08:27:35;;;;;;;2.35;1.73;;;;;;;;;;4967432;29;20019;-82
2023/06/04 08:30:01;;;;;;;7.53;1.58;;;;;;;;;;4972484;28;20050;-78
2023/06/04 08:32:27;;;;;;;4.18;1.80;;;;;;;;;;4970908;28;20027;-80
2023/06/04 08:34:52;;;;;;;5.03;2.10;;;;;;;;;;4963575;28;20048;-80
2023/06/04 08:37:17;;;;;;;2.53;2.15;;;;;;;;;;4968011;28;20070;-81
2023/06/04 08:39:43;;;;;;;5.50;1.80;;;;;;;;;;4975555;28;20022;-80
2023/06/04 08:42:25;;;;;;;3.22;1.83;;;;;;;;;;4975786;28;20035;-80
2023/06/04 08:44:52;;;;;;;2.20;1.83;;;;;;;;;;4967820;28;20459;-79
2023/06/04 08:47:19;;;;;;;4.03;2.20;;;;;;;;;;4974848;28;20413;-79
2023/06/04 08:49:49;;;;;;;2.92;2.20;;;;;;;;;;4971220;28;20040;-80
2023/06/04 08:52:15;;;;;;;2.92;1.73;;;;;;;;;;4956264;29;20023;-80
2023/06/04 08:54:40;;;;;;;3.97;1.95;;;;;;;;;;4947032;29;20024;-80
2023/06/04 08:57:06;;;;;;;2.40;1.60;;;;;;;;;;4959360;29;20027;-80
2023/06/04 08:59:32;;;;;;;5.22;1.77;;;;;;;;;;4968602;28;20030;-80
2023/06/04 09:01:58;;;;;;;2.13;1.88;;;;;;;;;;4942565;29;20028;-80
2023/06/04 09:04:24;;;;;;;2.75;1.80;;;;;;;;;;4957462;28;20027;-81
2023/06/04 09:06:50;;;;;;;2.35;1.83;;;;;;;;;;4964881;28;20070;-81
2023/06/04 09:09:17;;;;;;;1.88;1.50;;;;;;;;;;4978766;28;20027;-82
2023/06/04 09:11:51;;;;;;;2.63;1.65;;;;;;;;;;4964371;28;20027;-81
2023/06/04 09:14:16;;;;;;;12.23;2.40;;;;;;;;;;4953013;28;20028;-81
2023/06/04 09:16:52;;;;;;;2.40;1.48;;;;;;;;;;4977210;28;20087;-83
2023/06/04 09:19:19;;;;;;;3.00;1.83;;;;;;;;;;4944705;29;20051;-79
2023/06/04 09:21:57;;;;;;;8.07;1.90;;;;;;;;;;4967241;28;20530;-80
2023/06/04 09:24:25;;;;;;;3.75;1.65;;;;;;;;;;4968431;28;20024;-82
2023/06/04 09:26:51;;;;;;;6.30;1.92;;;;;;;;;;4974123;28;20015;-82
2023/06/04 09:29:19;;;;;;;3.95;1.75;;;;;;;;;;4984196;28;20023;-81
2023/06/04 09:31:57;;;;;;;2.40;1.77;;;;;;;;;;4968619;28;20034;-81
2023/06/04 09:34:28;;;;;;;4.63;1.75;;;;;;;;;;4983863;28;20047;-81
2023/06/04 09:36:54;;;;;;;3.35;2.08;;;;;;;;;;4979523;28;20086;-80
2023/06/04 09:39:19;;;;;;;2.22;1.90;;;;;;;;;;4978489;28;20062;-81
2023/06/04 09:42:02;;;;;;;2.63;1.73;;;;;;;;;;4958430;28;20027;-81
2023/06/04 09:44:43;;;;;;;3.65;2.00;;;;;;;;;;4961253;28;20023;-81
2023/06/04 09:47:08;;;;;;;6.93;1.98;;;;;;;;;;4970086;28;20037;-81
2023/06/04 09:49:46;;;;;;;2.83;1.77;;;;;;;;;;4981679;28;20050;-81
2023/06/04 09:52:13;;;;;;;5.88;2.15;;;;;;;;;;4971220;28;20389;-80
2023/06/04 09:54:41;;;;;;;2.85;1.90;;;;;;;;;;4963819;28;20074;-81
2023/06/04 09:57:17;;;;;;;2.65;1.92;;;;;;;;;;4962959;29;20037;-80
2023/06/04 09:59:44;;;;;;;2.50;1.85;;;;;;;;;;4946719;29;20579;-82
2023/06/04 10:02:11;;;;;;;3.33;2.10;;;;;;;;;;4957580;28;20031;-80
2023/06/04 10:04:40;;;;;;;4.03;1.95;;;;;;;;;;4966377;28;20035;-82
2023/06/04 10:07:08;;;;;;;4.18;1.80;;;;;;;;;;4978906;28;20047;-80
2023/06/04 10:09:35;;;;;;;4.30;1.90;;;;;;;;;;4945687;28;20027;-79
2023/06/04 10:12:01;;;;;;;2.90;1.90;;;;;;;;;;4967265;28;20027;-79
2023/06/04 10:14:42;;;;;;;3.45;1.70;;;;;;;;;;4954039;29;20023;-80
2023/06/04 10:17:10;;;;;;;4.35;2.13;;;;;;;;;;4972861;28;20027;-82
2023/06/04 10:19:39;;;;;;;2.53;1.88;;;;;;;;;;4948836;28;20042;-83
2023/06/04 10:22:05;;;;;;;3.78;2.17;;;;;;;;;;4959086;28;20062;-84
2023/06/04 10:24:31;;;;;;;3.40;1.92;;;;;;;;;;4941419;29;20023;-84
2023/06/04 10:26:58;;;;;;;4.47;2.10;;;;;;;;;;4945282;28;20086;-81
2023/06/04 10:29:25;;;;;;;3.85;2.08;;;;;;;;;;4947469;28;20038;-83
2023/06/04 10:31:55;;;;;;;3.72;2.47;;;;;;;;;;4941164;29;20046;-84
2023/06/04 10:34:20;;;;;;;3.63;2.20;;;;;;;;;;4965683;28;20091;-83
2023/06/04 10:36:46;;;;;;;5.45;2.03;;;;;;;;;;4972517;28;20039;-83
2023/06/04 10:39:11;;;;;;;4.90;1.77;;;;;;;;;;4961909;28;20060;-83
2023/06/04 10:41:37;;;;;;;2.30;1.73;;;;;;;;;;4967046;28;20031;-83
2023/06/04 10:44:02;;;;;;;3.08;2.17;;;;;;;;;;4939344;29;20023;-83
2023/06/04 10:46:39;;;;;;;3.60;1.90;;;;;;;;;;4967546;28;20027;-83
2023/06/04 10:49:05;;;;;;;3.60;1.83;;;;;;;;;;4975852;28;20054;-83
2023/06/04 10:51:32;;;;;;;5.22;1.95;;;;;;;;;;4963887;28;20035;-84
2023/06/04 10:53:58;;;;;;;2.85;1.77;;;;;;;;;;4958975;28;20063;-83
2023/06/04 10:56:27;;;;;;;6.00;1.83;;;;;;;;;;4960476;28;20104;-82
2023/06/04 10:58:53;;;;;;;4.10;2.10;;;;;;;;;;4951049;28;20027;-83
2023/06/04 11:01:28;;;;;;;9.50;2.00;;;;;;;;;;4965712;28;20126;-83
2023/06/04 11:03:55;;;;;;;5.25;2.28;;;;;;;;;;4963149;28;20035;-82
2023/06/04 11:06:21;;;;;;;6.25;2.38;;;;;;;;;;4960392;28;20085;-82
2023/06/04 11:08:47;;;;;;;4.25;1.98;;;;;;;;;;4958795;28;20102;-81
2023/06/04 11:11:14;;;;;;;3.75;2.13;;;;;;;;;;4929126;29;20158;-83
2023/06/04 11:13:40;;;;;;;7.50;2.30;;;;;;;;;;4967282;28;20027;-83
2023/06/04 11:16:20;;;;;;;3.35;2.45;;;;;;;;;;4974235;28;20050;-83
2023/06/04 11:18:56;;;;;;;6.55;1.90;;;;;;;;;;4949395;29;20023;-84
2023/06/04 11:21:22;;;;;;;3.60;2.17;;;;;;;;;;4940044;28;20031;-81
2023/06/04 11:23:47;;;;;;;5.20;2.08;;;;;;;;;;4967059;28;20031;-81
2023/06/04 11:26:13;;;;;;;4.55;2.50;;;;;;;;;;4958339;29;20035;-82
2023/06/04 11:28:40;;;;;;;3.70;2.13;;;;;;;;;;4975388;28;20035;-83
2023/06/04 11:31:05;;;;;;;2.90;2.13;;;;;;;;;;4967827;28;20441;-83
2023/06/04 11:33:47;;;;;;;3.70;2.30;;;;;;;;;;4964108;28;20477;-83
2023/06/04 11:36:26;;;;;;;7.18;2.45;;;;;;;;;;4961833;28;20034;-83
2023/06/04 11:38:59;;;;;;;3.03;2.17;;;;;;;;;;4966237;28;20143;-83
2023/06/04 11:41:32;;;;;;;5.50;2.55;;;;;;;;;;4962401;28;20037;-83
2023/06/04 11:44:01;;;;;;;6.00;2.35;;;;;;;;;;4956984;28;20027;-82
2023/06/04 11:46:26;;;;;;;3.78;2.25;;;;;;;;;;4949909;28;20027;-83
2023/06/04 11:48:55;;;;;;;7.25;2.22;;;;;;;;;;4949600;29;20109;-83
2023/06/04 11:51:21;;;;;;;3.30;2.60;;;;;;;;;;4940412;28;20046;-80
2023/06/04 11:53:47;;;;;;;3.92;2.60;;;;;;;;;;4979440;28;20026;-80
2023/06/04 11:56:12;;;;;;;3.83;2.15;;;;;;;;;;4961790;29;20035;-83
2023/06/04 11:58:40;;;;;;;5.18;2.58;;;;;;;;;;4940507;28;20055;-82
2023/06/04 12:01:06;;;;;;;3.90;2.20;;;;;;;;;;4939637;29;20034;-83
2023/06/04 12:03:42;;;;;;;2.45;2.00;;;;;;;;;;4962568;28;20035;-83
2023/06/04 12:06:16;;;;;;;2.85;2.17;;;;;;;;;;4964542;28;20038;-83
2023/06/04 12:08:47;;;;;;;9.45;2.35;;;;;;;;;;4950218;28;20091;-82
2023/06/04 12:11:28;;;;;;;;;;;;;;;;;;4975423;28;20106;-82
2023/06/04 12:13:58;;;;;;;2.45;1.95;;;;;;;;;;4965119;28;20005;-82
2023/06/04 12:16:23;;;;;;;3.78;2.50;;;;;;;;;;4968193;28;20079;-80
2023/06/04 12:18:50;;;;;;;3.15;2.00;;;;;;;;;;4947882;29;20038;-82
2023/06/04 12:21:26;;;;;;;4.15;2.25;;;;;;;;;;4956758;28;20114;-82
2023/06/04 12:23:53;;;;;;;4.07;2.15;;;;;;;;;;4958612;28;20055;-83
2023/06/04 12:26:28;;;;;;;4.18;2.00;;;;;;;;;;4951212;29;20182;-82
2023/06/04 12:29:10;;;;;;;8.93;2.10;;;;;;;;;;4957626;28;20541;-84
2023/06/04 12:31:37;;;;;;;3.53;1.83;;;;;;;;;;4951052;28;20031;-83
2023/06/04 12:34:02;;;;;;;3.50;2.55;;;;;;;;;;4947956;29;20132;-82
2023/06/04 12:36:28;;;;;;;4.22;2.47;;;;;;;;;;4967151;28;20035;-83
2023/06/04 12:38:59;;;;;;;3.53;1.90;;;;;;;;;;4952446;29;20031;-84
2023/06/04 12:41:25;;;;;;;4.47;2.20;;;;;;;;;;4968874;28;20023;-82
2023/06/04 12:43:50;;;;;;;5.40;2.60;;;;;;;;;;4956135;28;20374;-83
2023/06/04 12:46:16;;;;;;;4.47;2.72;;;;;;;;;;4964486;28;20028;-83
2023/06/04 13:01:29;;;;;;;6.75;2.35;;;;;;;;;;4917569;29;20059;-76
2023/06/04 13:03:55;;;;;;;3.60;2.40;;;;;;;;;;4927802;29;20028;-76
2023/06/04 13:06:20;;;;;;;2.65;2.10;;;;;;;;;;4930235;29;20043;-77
2023/06/04 13:08:46;;;;;;;6.30;2.17;;;;;;;;;;4930384;29;20082;-77
2023/06/04 13:11:12;;;;;;;9.45;2.50;;;;;;;;;;4939772;29;20035;-76
2023/06/04 13:13:37;;;;;;;2.53;2.03;;;;;;;;;;4925709;29;20024;-76
2023/06/04 13:16:04;;;;;;;6.80;2.50;;;;;;;;;;4923486;29;20028;-76
2023/06/04 13:18:29;;;;;;;3.75;2.00;;;;;;;;;;4911835;29;20102;-77
2023/06/04 13:20:55;;;;;;;3.22;2.10;;;;;;;;;;4930476;29;20044;-77
2023/06/04 13:23:20;;;;;;;2.25;1.77;;;;;;;;;;4918304;29;20028;-85
2023/06/04 13:25:46;;;;;;;2.47;1.65;;;;;;;;;;4907507;29;20035;-84
2023/06/04 13:28:18;;;;;;;3.10;2.03;;;;;;;;;;4930635;29;20031;-84
2023/06/04 13:30:44;;;;;;;4.55;2.08;;;;;;;;;;4899578;29;20024;-84
2023/06/04 13:33:10;;;;;;;5.68;2.22;;;;;;;;;;4931547;29;20031;-85
2023/06/04 13:35:35;;;;;;;2.78;2.10;;;;;;;;;;4929926;29;20029;-86
2023/06/04 13:38:04;;;;;;;3.30;2.20;;;;;;;;;;4906367;29;20056;-82
2023/06/04 13:40:42;;;;;;;3.38;2.35;;;;;;;;;;4937543;29;20027;-84
2023/06/04 13:43:08;;;;;;;8.27;2.63;;;;;;;;;;4910537;29;20151;-81
2023/06/04 13:45:34;;;;;;;4.80;2.42;;;;;;;;;;4940401;29;20043;-81
2023/06/04 13:48:05;;;;;;;4.32;2.40;;;;;;;;;;4924056;29;20028;-81
2023/06/04 13:50:31;;;;;;;2.95;2.25;;;;;;;;;;4940960;29;20024;-80
2023/06/04 13:52:57;;;;;;;4.03;2.45;;;;;;;;;;4938415;29;20051;-79
2023/06/04 13:55:22;;;;;;;3.78;2.40;;;;;;;;;;4937626;29;20023;-81
2023/06/04 13:57:47;;;;;;;3.47;2.25;;;;;;;;;;4906127;29;20024;-81
2023/06/04 14:00:13;;;;;;;3.22;2.30;;;;;;;;;;4927577;29;20391;-80
2023/06/04 14:02:39;;;;;;;3.00;2.20;;;;;;;;;;4928337;29;20036;-79
2023/06/04 14:05:05;;;;;;;3.13;2.28;;;;;;;;;;4941864;29;20099;-81
2023/06/04 14:07:31;;;;;;;6.13;2.80;;;;;;;;;;4927052;29;20052;-81
2023/06/04 14:09:56;;;;;;;2.97;2.08;;;;;;;;;;4934907;29;20036;-81
2023/06/04 14:12:22;;;;;;;3.70;2.20;;;;;;;;;;4943233;29;20035;-81
2023/06/04 14:14:48;;;;;;;5.10;2.15;;;;;;;;;;4933563;29;20167;-80
2023/06/04 14:17:13;;;;;;;3.58;2.30;;;;;;;;;;4921157;29;20435;-81
2023/06/04 14:19:40;;;;;;;3.13;2.17;;;;;;;;;;4943751;29;20105;-82
2023/06/04 14:22:05;;;;;;;3.55;2.25;;;;;;;;;;4937386;29;20038;-81
2023/06/04 14:24:31;;;;;;;4.25;2.28;;;;;;;;;;4937544;29;20035;-79
2023/06/04 14:26:56;;;;;;;2.50;1.98;;;;;;;;;;4927814;29;20054;-79
2023/06/04 14:29:21;;;;;;;3.45;2.17;;;;;;;;;;4944690;29;20032;-82
2023/06/04 14:31:47;;;;;;;5.28;2.47;;;;;;;;;;4928788;29;20096;-80
2023/06/04 14:34:12;;;;;;;3.75;2.15;;;;;;;;;;4917332;29;20028;-81
2023/06/04 14:36:37;;;;;;;3.22;2.17;;;;;;;;;;4939532;29;20084;-81
2023/06/04 14:39:03;;;;;;;2.83;1.90;;;;;;;;;;4927659;29;20032;-81
2023/06/04 14:41:28;;;;;;;3.67;1.80;;;;;;;;;;4943811;29;20031;-80
2023/06/04 14:43:54;;;;;;;3.42;2.10;;;;;;;;;;4934123;29;20482;-79
2023/06/04 14:46:19;;;;;;;2.40;1.75;;;;;;;;;;4927782;29;20028;-81
2023/06/04 14:48:45;;;;;;;4.63;1.73;;;;;;;;;;4924333;29;20395;-80
2023/06/04 14:51:10;;;;;;;4.15;2.05;;;;;;;;;;4941792;29;20027;-81
2023/06/04 14:53:38;;;;;;;2.88;2.25;;;;;;;;;;4932398;29;20031;-76
2023/06/04 14:56:04;;;;;;;2.28;1.80;;;;;;;;;;4922324;29;20024;-81